Latest Weather Observations for Bega

IDN60801

Issued at 5:05 pm EST Wednesday 16 April 2014 (issued every 30 minutes, with the page automatically refreshed every 10 minutes)

About weather observations | Map of weather stations | Latest weather observations for NSW | Other Formats
Station Details ID: 069139 Name: BEGA AWS Lat: -36.67 Lon: 149.82 Height: 41.0 m
Data from the previous 72 hours. | See also: Recent months at Bega
Date/Time
EST
Temp
°C
App
Temp
°C
Dew
Point
Rel
Hum
%
Delta-T
°C
Wind Press
QNH
hPa
Press
MSL
hPa
Rain
since 9 am
mm
Dir
 
Spd
km/h
Gust
km/h
Spd
kts
Gust
kts
16/05:00pm 17.7 15.2 11.0 65 3.6 SE 15 20 8 11 1019.0 - 0.0
16/04:30pm 18.2 15.4 11.3 64 3.8 ESE 17 26 9 14 1018.8 - 0.0
16/04:00pm 18.7 15.3 11.3 62 4.0 SE 20 28 11 15 1018.7 - 0.0
16/03:30pm 19.6 17.0 10.6 56 4.9 ESE 15 20 8 11 1018.7 - 0.0
16/03:00pm 20.1 17.1 10.8 55 5.1 ESE 17 24 9 13 1018.8 1018.7 0.0
16/02:30pm 20.8 18.1 8.8 46 6.3 ESE 13 19 7 10 1018.8 - 0.0
16/02:00pm 21.3 18.6 8.9 45 6.6 S 13 19 7 10 1018.9 - 0.0
16/01:30pm 20.7 17.8 6.6 40 7.1 SW 11 19 6 10 1019.0 - 0.0
16/01:00pm 21.2 19.5 8.5 44 6.7 ESE 7 13 4 7 1019.2 - 0.0
16/12:30pm 21.0 19.1 10.5 51 5.7 S 11 17 6 9 1019.5 - 0.0
16/12:00pm 20.3 18.0 7.3 43 6.6 SW 9 15 5 8 1020.1 1020.0 0.0
16/11:30am 20.1 18.4 9.9 52 5.5 S 9 17 5 9 1020.5 - 0.0
16/11:00am 19.3 16.4 8.0 48 5.8 SW 13 19 7 10 1021.0 - 0.0
16/10:30am 18.6 15.6 9.4 55 4.8 WSW 15 24 8 13 1021.2 - 0.0
16/10:00am 17.7 16.1 10.1 61 4.0 SW 9 19 5 10 1021.6 - 0.0
16/09:30am 16.0 15.7 12.6 80 1.9 ENE 6 7 3 4 1022.0 - 0.0
16/09:00am 13.6 12.4 10.4 81 1.7 NNE 7 9 4 5 1022.2 1022.1 0.0
16/08:30am 12.4 11.3 10.6 89 0.9 E 7 11 4 6 1022.4 - 0.0
16/08:00am 9.6 9.4 9.0 96 0.3 CALM 0 0 0 0 1022.3 - 0.0
16/07:30am 9.0 8.8 8.9 99 0.0 CALM 0 0 0 0 1022.0 - 0.0
16/07:00am 7.7 6.0 7.6 99 0.0 N 6 6 3 3 1021.8 - 0.0
16/06:30am 6.9 5.4 6.8 99 0.0 NE 4 11 2 6 1021.6 - 0.0
16/06:00am 7.8 7.3 7.7 99 0.0 CALM 0 0 0 0 1021.4 1021.3 0.0
16/05:30am 7.7 7.1 7.6 99 0.0 CALM 0 0 0 0 1021.5 - 0.0
16/05:00am 7.8 6.5 7.7 99 0.0 NNE 4 7 2 4 1021.4 - 0.0
16/04:30am 7.3 5.3 7.2 99 0.0 NE 7 9 4 5 1021.5 - 0.0
16/04:00am 8.2 7.8 8.1 99 0.0 CALM 0 0 0 0 1021.5 - 0.0
16/03:30am 8.6 8.3 8.5 99 0.0 CALM 0 0 0 0 1021.4 - 0.0
16/03:00am 8.0 6.8 7.9 99 0.0 NW 4 7 2 4 1021.6 1021.5 0.0
16/02:30am 8.8 8.5 8.5 98 0.1 CALM 0 0 0 0 1021.8 - 0.0
16/02:00am 8.8 8.5 8.5 98 0.1 CALM 0 0 0 0 1022.2 - 0.0
16/01:30am 9.2 8.9 8.7 97 0.2 CALM 0 0 0 0 1022.4 - 0.0
16/01:00am 9.7 9.1 8.9 95 0.4 N 2 6 1 3 1022.6 - 0.0
16/12:30am 10.6 10.6 9.8 95 0.4 CALM 0 4 0 2 1022.8 - 0.0
16/12:00am 10.0 8.5 9.2 95 0.4 NNE 7 9 4 5 1023.0 1022.9 0.0
 
Date/Time
EST
Temp
°C
App
Temp
°C
Dew
Point
Rel
Hum
%
Delta-T
°C
Wind Press
QNH
hPa
Press
MSL
hPa
Rain
since 9 am
mm
Dir
 
Spd
km/h
Gust
km/h
Spd
kts
Gust
kts
15/11:30pm 10.5 10.5 9.7 95 0.4 CALM 0 0 0 0 1023.2 - 0.0
15/11:00pm 10.5 10.4 9.4 93 0.6 CALM 0 0 0 0 1023.2 - 0.0
15/10:30pm 10.8 10.7 9.6 92 0.6 CALM 0 0 0 0 1023.4 - 0.0
15/10:00pm 10.9 10.1 9.8 93 0.6 SW 4 7 2 4 1023.5 - 0.0
15/09:30pm 11.7 10.9 9.6 87 1.1 ENE 4 7 2 4 1023.6 - 0.0
15/09:00pm 12.6 10.7 9.2 80 1.7 SW 9 17 5 9 1023.5 1023.4 0.0
15/08:30pm 13.7 10.5 10.1 79 1.9 WSW 17 20 9 11 1023.3 - 0.0
15/08:00pm 13.6 11.2 10.2 80 1.8 W 13 17 7 9 1023.3 - 0.0
15/07:30pm 14.7 12.4 10.3 75 2.3 WSW 13 17 7 9 1023.1 - 0.0
15/07:00pm 14.9 12.2 10.3 74 2.4 WSW 15 20 8 11 1023.0 - 0.0
15/06:30pm 15.8 13.6 10.8 72 2.7 SW 13 17 7 9 1022.8 - 0.0
15/06:00pm 15.8 14.0 11.0 73 2.6 SSW 11 15 6 8 1022.4 1022.3 0.0
15/05:30pm 16.4 12.9 10.9 70 2.9 SW 20 24 11 13 1022.2 - 0.0
15/05:00pm 16.9 13.5 10.5 66 3.4 S 19 24 10 13 1021.9 - 0.0
15/04:30pm 17.2 14.7 11.2 68 3.2 SSW 15 26 8 14 1021.7 - 0.0
15/04:00pm 17.8 15.0 11.4 66 3.5 S 17 24 9 13 1021.5 - 0.0
15/03:30pm 17.0 13.2 11.3 69 3.1 S 22 32 12 17 1021.7 - 0.0
15/03:00pm 18.0 14.2 11.1 64 3.7 SSW 22 30 12 16 1021.4 1021.3 0.0
15/02:30pm 17.3 13.6 11.6 69 3.1 S 22 30 12 16 1021.4 - 0.0
15/02:00pm 16.7 11.8 11.4 71 2.9 S 28 43 15 23 1021.2 - 0.0
15/01:30pm 19.4 17.0 12.7 65 3.8 S 17 32 9 17 1021.0 - 0.0
15/01:00pm 18.2 16.4 13.3 73 2.8 S 15 22 8 12 1021.2 - 0.0
15/12:30pm 18.3 14.9 12.5 69 3.2 SSW 22 30 12 16 1021.5 - 0.0
15/12:00pm 18.3 16.3 12.7 70 3.1 S 15 24 8 13 1022.0 1021.9 0.0
15/11:30am 17.1 13.5 11.8 71 2.9 SSW 22 39 12 21 1022.5 - 0.0
15/11:00am 18.3 14.3 11.8 66 3.6 SSW 24 32 13 17 1022.4 - 0.0
15/10:30am 18.1 14.6 11.0 63 3.8 SSW 20 30 11 16 1022.3 - 0.0
15/10:00am 17.9 14.6 11.5 66 3.5 SW 20 26 11 14 1022.6 - 0.0
15/09:30am 18.3 16.1 12.1 67 3.4 SW 15 26 8 14 1022.6 - 0.0
15/09:00am 16.2 16.2 11.2 72 2.7 NNE 2 11 1 6 1022.8 1022.7 0.0
15/08:30am 14.3 13.1 11.5 83 1.5 NE 9 13 5 7 1022.8 - 0.0
15/08:00am 12.8 11.7 10.7 87 1.1 NNE 7 7 4 4 1022.7 - 0.0
15/07:30am 11.4 11.1 10.0 91 0.7 E 2 6 1 3 1022.5 - 0.0
15/07:00am 10.4 10.3 9.5 94 0.5 CALM 0 0 0 0 1022.4 - 0.0
15/06:30am 9.6 9.3 8.7 94 0.4 CALM 0 0 0 0 1022.1 - 0.0
15/06:00am 9.3 8.9 8.4 94 0.4 CALM 0 0 0 0 1022.0 1021.9 0.0
15/05:30am 8.9 8.5 8.3 96 0.3 CALM 0 6 0 3 1022.0 - 0.0
15/05:00am 8.7 7.1 7.9 95 0.4 NE 6 9 3 5 1021.8 - 0.0
15/04:30am 9.0 8.6 8.1 94 0.4 CALM 0 0 0 0 1021.6 - 0.0
15/04:00am 8.9 7.4 8.3 96 0.3 NNE 6 9 3 5 1021.6 - 0.0
15/03:30am 8.1 7.5 7.5 96 0.3 CALM 0 0 0 0 1021.5 - 0.0
15/03:00am 8.3 6.4 7.5 95 0.4 NE 7 9 4 5 1021.5 1021.4 0.0
15/02:30am 8.8 8.0 8.2 96 0.3 NE 2 7 1 4 1021.6 - 0.0
15/02:00am 9.2 8.1 8.3 94 0.4 N 4 7 2 4 1021.9 - 0.0
15/01:30am 9.5 9.1 8.4 93 0.5 CALM 0 0 0 0 1022.1 - 0.0
15/01:00am 9.5 7.8 8.4 93 0.5 ENE 7 9 4 5 1022.4 - 0.0
15/12:30am 10.5 9.5 8.8 89 0.8 SW 4 11 2 6 1022.4 - 0.0
15/12:00am 11.3 9.1 8.0 80 1.6 WSW 9 11 5 6 1022.7 1022.6 0.0
 
Date/Time
EST
Temp
°C
App
Temp
°C
Dew
Point
Rel
Hum
%
Delta-T
°C
Wind Press
QNH
hPa
Press
MSL
hPa
Rain
since 9 am
mm
Dir
 
Spd
km/h
Gust
km/h
Spd
kts
Gust
kts
14/11:30pm 12.3 10.0 9.1 81 1.6 WSW 11 17 6 9 1022.6 - 0.0
14/11:00pm 11.1 10.3 9.7 91 0.7 NE 4 7 2 4 1022.9 - 0.0
14/10:30pm 11.7 11.3 9.8 88 1.0 NE 2 6 1 3 1023.0 - 0.0
14/10:00pm 12.1 11.3 9.7 85 1.2 WSW 4 7 2 4 1023.2 - 0.0
14/09:30pm 14.0 12.2 9.4 74 2.4 WSW 9 15 5 8 1023.2 - 0.0
14/09:00pm 14.8 12.1 9.0 68 2.9 WSW 13 17 7 9 1023.2 1023.1 0.0
14/08:30pm 14.4 12.6 9.6 73 2.5 WSW 9 15 5 8 1023.1 - 0.0
14/08:00pm 13.7 12.6 9.9 78 2.0 WNW 6 11 3 6 1022.9 - 0.0
14/07:30pm 14.0 13.6 9.8 76 2.2 S 2 7 1 4 1022.7 - 0.0
14/07:00pm 14.7 13.5 9.7 72 2.6 S 6 9 3 5 1022.7 - 0.0
14/06:30pm 14.5 13.1 9.5 72 2.6 SSW 7 9 4 5 1022.2 - 0.0
14/06:00pm 15.0 12.9 9.8 71 2.7 S 11 15 6 8 1021.7 1021.6 0.0
14/05:30pm 15.7 13.9 9.4 66 3.3 SSW 9 13 5 7 1021.6 - 0.0
14/05:00pm 16.9 14.1 10.1 64 3.6 SSE 15 20 8 11 1021.3 - 0.0
14/04:30pm 18.4 16.6 11.0 62 4.0 S 11 20 6 11 1021.0 - 0.0
14/04:00pm 18.3 14.5 9.9 58 4.5 SSW 20 28 11 15 1020.9 - 0.0
14/03:30pm 17.9 15.8 9.8 59 4.3 SSW 11 19 6 10 1020.9 - 0.0
14/03:00pm 18.2 16.4 11.0 63 3.9 S 11 15 6 8 1021.0 1020.9 0.0
14/02:30pm 17.5 14.0 10.1 62 3.9 S 19 26 10 14 1021.0 - 0.0
14/02:00pm 18.6 16.9 11.2 62 4.0 SE 11 17 6 9 1021.0 - 0.0
14/01:30pm 18.2 17.7 12.2 68 3.3 S 6 13 3 7 1021.2 - 0.0
14/01:00pm 18.0 15.3 10.4 61 4.1 SW 15 20 8 11 1021.5 - 0.0
14/12:30pm 17.3 13.7 11.8 70 3.0 WSW 22 28 12 15 1021.9 - 0.0
14/12:00pm 17.4 14.2 10.1 62 3.9 SW 17 24 9 13 1022.2 1022.1 0.0
14/11:30am 18.3 17.2 11.8 66 3.6 SSW 9 19 5 10 1022.4 - 0.0
14/11:00am 16.7 14.7 11.6 72 2.8 SSW 13 19 7 10 1022.7 - 0.0
14/10:30am 17.1 13.2 10.7 66 3.4 SW 22 32 12 17 - - 0.0
14/10:00am 16.6 13.1 10.9 69 3.1 WSW 20 26 11 14 1022.6 - 0.0
14/09:30am 15.1 11.0 11.3 78 2.0 W 24 33 13 18 1022.6 - 0.0
14/09:00am 16.8 13.4 11.3 70 3.0 WSW 20 32 11 17 1022.7 1022.6 0.0
14/08:30am 15.3 13.8 10.5 73 2.5 SW 9 20 5 11 1022.5 - 0.0
14/08:00am 12.9 12.0 10.8 87 1.1 S 6 15 3 8 1022.6 - 0.0
14/07:30am 10.5 10.4 9.6 94 0.5 CALM 0 0 0 0 1022.3 - 0.0
14/07:00am 9.8 9.6 9.2 96 0.3 CALM 0 0 0 0 1022.0 - 0.0
14/06:30am 9.3 9.0 8.5 95 0.4 CALM 0 0 0 0 1021.7 - 0.0
14/06:00am 9.0 8.7 8.5 97 0.2 CALM 0 0 0 0 1021.5 1021.4 0.0
14/05:30am 9.2 8.9 8.6 96 0.3 CALM 0 0 0 0 1021.3 - 0.0
14/05:00am 9.8 9.6 8.9 94 0.4 CALM 0 6 0 3 1021.2 - 0.0
14/04:30am 9.6 9.3 8.7 94 0.4 CALM 0 0 0 0 1021.1 - 0.0
14/04:00am 10.0 9.8 9.1 94 0.4 CALM 0 0 0 0 1021.0 - 0.0
14/03:30am 10.2 8.9 9.1 93 0.5 NNE 6 9 3 5 1020.8 - 0.0
14/03:00am 10.2 10.0 9.0 92 0.6 CALM 0 0 0 0 1020.8 1020.7 0.0
14/02:30am 10.5 10.4 9.3 92 0.6 CALM 0 6 0 3 1020.8 - 0.0
14/02:00am 10.8 10.6 9.1 89 0.8 CALM 0 0 0 0 1021.1 - 0.0
14/01:30am 10.9 10.6 8.7 86 1.1 CALM 0 0 0 0 1021.2 - 0.0
14/01:00am 10.6 10.3 8.5 87 1.0 CALM 0 0 0 0 1021.2 - 0.0
14/12:30am 11.9 11.2 8.7 81 1.6 S 2 9 1 5 1021.3 - 0.0
14/12:00am 12.2 12.0 8.9 80 1.6 CALM 0 6 0 3 1021.3 1021.2 0.0
 
Date/Time
EST
Temp
°C
App
Temp
°C
Dew
Point
Rel
Hum
%
Delta-T
°C
Wind Press
QNH
hPa
Press
MSL
hPa
Rain
since 9 am
mm
Dir
 
Spd
km/h
Gust
km/h
Spd
kts
Gust
kts
13/11:30pm 13.7 11.6 8.1 69 2.8 WSW 9 13 5 7 1021.4 - 0.0
13/11:00pm 13.1 11.1 8.8 75 2.2 S 9 17 5 9 1021.7 - 0.0
13/10:30pm 14.3 10.4 8.5 68 2.9 WSW 19 26 10 14 1021.7 - 0.0
13/10:00pm 13.8 10.7 9.0 73 2.4 WSW 15 19 8 10 1021.7 - 0.0
13/09:30pm 13.8 12.3 9.3 74 2.3 S 7 9 4 5 1021.9 - 0.0
13/09:00pm 13.5 11.6 9.2 75 2.2 SSW 9 9 5 5 1021.6 1021.5 0.0
13/08:30pm 13.7 10.7 9.2 74 2.3 SSW 15 17 8 9 1021.5 - 0.0
13/08:00pm 14.0 12.4 8.8 71 2.6 SSW 7 11 4 6 1021.4 - 0.0
13/07:30pm 14.6 11.5 9.0 69 2.9 WSW 15 20 8 11 1020.9 - 0.0
13/07:00pm 15.1 12.2 9.5 69 2.9 SSW 15 20 8 11 1020.5 - 0.0
13/06:30pm 15.3 13.2 9.9 70 2.8 SSW 11 17 6 9 1020.1 - 0.0
13/06:00pm 15.7 13.9 10.7 72 2.6 SSW 11 15 6 8 1019.7 1019.6 0.0
13/05:30pm 16.6 13.6 10.7 68 3.2 SSW 17 22 9 12 1019.4 - 0.0

Other Formats:

Comma delimited format used in spreadsheet applications
http://www.bom.gov.au/fwo/IDN60801/IDN60801.95931.axf

JavaScript Object Notation format (JSON) in row-major order
http://www.bom.gov.au/fwo/IDN60801/IDN60801.95931.json